createdAt,value
2022-09-26T00:01:37.854Z,57.56
2022-09-26T00:04:09.228Z,57.55
2022-09-26T00:06:37.642Z,57.74
2022-09-26T00:09:05.816Z,58.07
2022-09-26T00:11:35.565Z,57.81
2022-09-26T00:14:07.115Z,57.80
2022-09-26T00:16:35.378Z,57.83
2022-09-26T00:19:04.007Z,57.70
2022-09-26T00:21:32.686Z,57.63
2022-09-26T00:24:01.973Z,57.62
2022-09-26T00:26:32.250Z,57.53
2022-09-26T00:29:04.493Z,57.29
2022-09-26T00:31:35.987Z,57.08
2022-09-26T00:34:04.713Z,56.90
2022-09-26T00:36:38.427Z,56.66
2022-09-26T00:39:08.942Z,56.52
2022-09-26T00:41:38.195Z,56.57
2022-09-26T00:44:35.716Z,56.43
2022-09-26T00:47:06.559Z,56.46
2022-09-26T00:49:37.225Z,56.36
2022-09-26T00:52:10.495Z,55.98
2022-09-26T00:54:44.457Z,55.86
2022-09-26T00:57:16.480Z,55.74
2022-09-26T00:59:48.392Z,55.45
2022-09-26T01:02:18.381Z,55.42
2022-09-26T01:04:48.199Z,55.43
2022-09-26T01:07:20.591Z,55.32
2022-09-26T01:09:49.830Z,55.57
2022-09-26T01:12:19.395Z,55.61
2022-09-26T01:14:48.791Z,55.78
2022-09-26T01:17:18.487Z,55.99
2022-09-26T01:19:57.534Z,55.92
2022-09-26T01:22:56.746Z,56.06
2022-09-26T01:25:35.325Z,56.50
2022-09-26T01:28:19.696Z,56.49
2022-09-26T01:30:58.573Z,56.53
2022-09-26T01:33:42.794Z,56.74
2022-09-26T01:36:34.440Z,56.63
2022-09-26T01:39:14.707Z,56.69
2022-09-26T01:41:51.357Z,56.64
2022-09-26T01:44:30.975Z,56.75
2022-09-26T01:47:08.147Z,56.97
2022-09-26T01:49:44.282Z,57.59
2022-09-26T01:52:19.935Z,57.61
2022-09-26T01:54:54.387Z,57.88
2022-09-26T01:57:30.505Z,57.75
2022-09-26T02:00:03.359Z,57.72
2022-09-26T02:02:38.802Z,57.84
2022-09-26T02:05:13.271Z,57.93
2022-09-26T02:07:46.591Z,57.83
2022-09-26T02:10:19.816Z,58.22
2022-09-26T02:12:54.998Z,58.25
2022-09-26T02:15:26.603Z,58.36
2022-09-26T02:18:03.126Z,58.15
2022-09-26T02:20:33.243Z,58.16
2022-09-26T02:23:04.135Z,58.07
2022-09-26T02:25:32.542Z,57.99
2022-09-26T02:28:00.551Z,57.80
2022-09-26T02:30:28.657Z,58.06
2022-09-26T02:32:58.375Z,58.07
2022-09-26T02:35:44.179Z,58.13
2022-09-26T02:38:12.981Z,57.97
2022-09-26T02:40:57.227Z,57.93
2022-09-26T02:43:44.885Z,58.09
2022-09-26T02:46:40.852Z,58.23
2022-09-26T02:49:30.399Z,58.32
2022-09-26T02:52:14.319Z,58.45
2022-09-26T02:54:49.916Z,58.58
2022-09-26T02:57:34.411Z,58.74
2022-09-26T03:00:07.858Z,58.63
2022-09-26T03:02:42.011Z,58.80
2022-09-26T03:05:21.830Z,59.19
2022-09-26T03:07:57.526Z,58.98
2022-09-26T03:10:28.715Z,58.95
2022-09-26T03:13:02.638Z,59.60
2022-09-26T03:15:30.890Z,59.93
2022-09-26T03:18:00.362Z,60.03
2022-09-26T03:20:30.458Z,60.02
2022-09-26T03:22:58.578Z,60.02
2022-09-26T03:25:28.946Z,60.05
2022-09-26T03:28:08.083Z,60.96
2022-09-26T03:30:36.350Z,61.10
2022-09-26T03:33:34.300Z,60.91
2022-09-26T03:36:07.483Z,61.41
2022-09-26T03:38:35.567Z,61.45
2022-09-26T03:41:17.483Z,61.38
2022-09-26T03:44:06.892Z,61.01
2022-09-26T03:46:55.215Z,61.32
2022-09-26T03:49:23.259Z,61.60
2022-09-26T03:51:52.789Z,61.47
2022-09-26T03:54:20.801Z,61.85
2022-09-26T03:56:50.004Z,61.85
2022-09-26T03:59:18.329Z,61.85
2022-09-26T04:01:48.611Z,61.89
2022-09-26T04:04:16.702Z,61.89
2022-09-26T04:06:46.059Z,61.89
2022-09-26T04:09:17.644Z,62.06
2022-09-26T04:11:52.512Z,62.13
2022-09-26T04:14:22.025Z,62.37
2022-09-26T04:16:55.787Z,62.20
2022-09-26T04:19:28.440Z,62.16
2022-09-26T04:21:56.974Z,62.31
2022-09-26T04:24:26.798Z,62.40
2022-09-26T04:26:55.123Z,62.60
2022-09-26T04:29:23.308Z,62.75
2022-09-26T04:32:15.846Z,62.67
2022-09-26T04:35:03.850Z,62.52
2022-09-26T04:37:31.979Z,62.68
2022-09-26T04:40:01.533Z,62.72
2022-09-26T04:42:29.814Z,62.75
2022-09-26T04:44:57.819Z,62.73
2022-09-26T04:47:25.905Z,62.87
2022-09-26T04:50:26.263Z,62.90
2022-09-26T04:53:06.584Z,63.02
2022-09-26T04:55:40.586Z,62.92
2022-09-26T04:58:08.619Z,62.85
2022-09-26T05:00:37.410Z,62.96
2022-09-26T05:03:07.415Z,62.98
2022-09-26T05:05:36.285Z,63.09
2022-09-26T05:08:05.322Z,63.22
2022-09-26T05:10:33.434Z,63.18
2022-09-26T05:13:06.074Z,63.20
2022-09-26T05:15:39.096Z,63.24
2022-09-26T05:18:11.394Z,63.21
2022-09-26T05:20:40.042Z,63.31
2022-09-26T05:23:09.119Z,63.75
2022-09-26T05:25:57.461Z,63.96
2022-09-26T05:28:28.370Z,63.88
2022-09-26T05:30:57.008Z,63.85
2022-09-26T05:33:25.097Z,63.89
2022-09-26T05:35:54.799Z,63.77
2022-09-26T05:38:23.440Z,63.78
2022-09-26T05:40:59.339Z,63.63
2022-09-26T05:43:33.270Z,63.51
2022-09-26T05:46:05.098Z,63.46
2022-09-26T05:48:39.684Z,63.60
2022-09-26T05:51:13.378Z,63.44
2022-09-26T05:53:46.457Z,63.40
2022-09-26T05:56:19.631Z,63.39
2022-09-26T05:59:04.182Z,63.17
2022-09-26T06:01:50.774Z,63.17
2022-09-26T06:04:33.370Z,63.15
2022-09-26T06:07:30.580Z,63.26
2022-09-26T06:09:58.630Z,63.26
2022-09-26T06:12:42.046Z,63.10
2022-09-26T06:15:11.867Z,62.99
2022-09-26T06:17:40.082Z,62.96
2022-09-26T06:20:09.221Z,62.99
2022-09-26T06:22:41.738Z,62.78
2022-09-26T06:25:10.762Z,62.98
2022-09-26T06:27:39.533Z,62.76
2022-09-26T06:30:10.596Z,62.60
2022-09-26T06:32:40.087Z,62.61
2022-09-26T06:35:34.415Z,62.67
2022-09-26T06:38:05.829Z,62.51
2022-09-26T06:40:34.309Z,62.32
2022-09-26T06:43:02.364Z,62.21
2022-09-26T06:45:50.745Z,62.26
2022-09-26T06:48:43.429Z,62.18
2022-09-26T06:51:21.449Z,62.09
2022-09-26T06:53:49.694Z,61.77
2022-09-26T06:56:21.675Z,61.46
2022-09-26T06:58:50.979Z,61.50
2022-09-26T07:01:22.965Z,61.34
2022-09-26T07:04:11.133Z,61.20
2022-09-26T07:06:45.183Z,61.05
2022-09-26T07:09:14.433Z,61.00
2022-09-26T07:12:14.573Z,60.61
2022-09-26T07:14:44.314Z,60.45
2022-09-26T07:17:21.146Z,60.47
2022-09-26T07:20:15.448Z,60.38
2022-09-26T07:23:03.030Z,60.31
2022-09-26T07:25:32.020Z,60.67
2022-09-26T07:28:02.785Z,60.31
2022-09-26T07:30:51.263Z,59.93
2022-09-26T07:33:45.854Z,59.50
2022-09-26T07:36:15.963Z,59.58
2022-09-26T07:38:44.950Z,59.40
2022-09-26T07:41:13.189Z,59.03
2022-09-26T07:44:19.343Z,59.06
2022-09-26T07:46:47.914Z,59.03
2022-09-26T07:49:33.413Z,58.80
2022-09-26T07:52:17.458Z,58.44
2022-09-26T07:55:05.221Z,58.40
2022-09-26T07:57:53.528Z,58.42
2022-09-26T08:00:36.398Z,58.55
2022-09-26T08:03:18.102Z,58.59
2022-09-26T08:05:46.505Z,58.53
2022-09-26T08:08:15.893Z,58.48
2022-09-26T08:11:04.223Z,58.62
2022-09-26T08:13:58.266Z,59.10
2022-09-26T08:16:47.523Z,59.36
2022-09-26T08:19:17.565Z,59.39
2022-09-26T08:21:46.426Z,59.08
2022-09-26T08:24:16.162Z,59.09
2022-09-26T08:26:57.217Z,59.24
2022-09-26T08:29:32.287Z,59.03
2022-09-26T08:32:03.124Z,58.74
2022-09-26T08:34:35.051Z,59.01
2022-09-26T08:37:21.677Z,58.06
2022-09-26T08:40:11.357Z,58.40
2022-09-26T08:43:26.129Z,58.69
2022-09-26T08:46:42.512Z,58.46
2022-09-26T08:49:50.358Z,58.49
2022-09-26T08:52:29.192Z,58.00
2022-09-26T08:54:59.362Z,57.78
2022-09-26T08:57:39.924Z,57.90
2022-09-26T09:00:19.407Z,57.95
2022-09-26T09:03:06.683Z,57.40
2022-09-26T09:05:39.312Z,57.42
2022-09-26T09:08:13.890Z,57.23
2022-09-26T09:11:01.951Z,56.93
2022-09-26T09:13:52.810Z,56.48
2022-09-26T09:16:38.202Z,56.36
2022-09-26T09:19:35.268Z,56.10
2022-09-26T09:22:46.366Z,56.36
2022-09-26T09:25:23.941Z,56.43
2022-09-26T09:28:12.639Z,56.00
2022-09-26T09:30:46.704Z,56.16
2022-09-26T09:33:33.202Z,56.07
2022-09-26T09:36:22.547Z,56.16
2022-09-26T09:39:09.692Z,56.35
2022-09-26T09:42:01.585Z,55.42
2022-09-26T09:44:43.052Z,55.24
2022-09-26T09:47:17.817Z,55.64
2022-09-26T09:49:49.604Z,55.99
2022-09-26T09:52:43.737Z,56.66
2022-09-26T09:55:20.017Z,56.77
2022-09-26T09:58:16.557Z,55.86
2022-09-26T10:00:51.592Z,55.66
2022-09-26T10:03:38.877Z,55.72
2022-09-26T10:06:46.189Z,55.71
2022-09-26T10:09:36.486Z,55.74
2022-09-26T10:12:56.531Z,55.51
2022-09-26T10:16:41.479Z,56.00
2022-09-26T10:19:49.420Z,56.33
2022-09-26T10:22:34.533Z,56.19
2022-09-26T10:25:08.704Z,56.13
2022-09-26T10:28:07.347Z,56.23
2022-09-26T10:31:15.778Z,56.52
2022-09-26T10:34:20.413Z,56.90
2022-09-26T10:37:48.428Z,57.03
2022-09-26T10:40:53.357Z,57.32
2022-09-26T10:43:41.993Z,57.56
2022-09-26T10:46:20.245Z,57.94
2022-09-26T10:49:07.461Z,58.28
2022-09-26T10:52:01.761Z,58.54
2022-09-26T10:54:41.287Z,58.57
2022-09-26T10:57:20.632Z,58.48
2022-09-26T10:59:50.091Z,58.99
2022-09-26T11:02:24.161Z,59.10
2022-09-26T11:05:15.160Z,59.29
2022-09-26T11:08:08.887Z,60.13
2022-09-26T11:10:48.969Z,60.41
2022-09-26T11:13:32.363Z,60.52
2022-09-26T11:16:10.723Z,60.49
2022-09-26T11:18:51.017Z,60.12
2022-09-26T11:21:29.196Z,60.47
2022-09-26T11:24:11.857Z,60.55
2022-09-26T11:27:09.028Z,60.44
2022-09-26T11:29:45.123Z,60.76
2022-09-26T11:32:41.233Z,60.76
2022-09-26T11:35:55.543Z,61.36
2022-09-26T11:38:39.989Z,61.57
2022-09-26T11:44:55.972Z,62.45
2022-09-26T11:48:10.945Z,62.74
2022-09-26T11:51:47.111Z,63.07
2022-09-26T11:54:38.237Z,63.12
2022-09-26T11:57:34.187Z,63.10
2022-09-26T12:00:09.159Z,63.43
2022-09-26T12:03:36.826Z,63.14
2022-09-26T12:06:18.163Z,63.25
2022-09-26T12:09:15.839Z,63.34
2022-09-26T12:11:53.283Z,63.48
2022-09-26T12:14:44.371Z,63.50
2022-09-26T12:17:19.697Z,63.85
2022-09-26T12:20:00.975Z,63.63
2022-09-26T12:22:36.428Z,64.00
2022-09-26T12:25:46.032Z,64.10
2022-09-26T12:28:42.791Z,63.79
2022-09-26T12:31:18.820Z,63.99
2022-09-26T12:34:16.358Z,64.05
2022-09-26T12:37:01.849Z,64.27
2022-09-26T12:39:56.357Z,64.14
2022-09-26T12:43:14.176Z,64.23
2022-09-26T12:46:21.558Z,64.55
2022-09-26T12:52:47.729Z,64.63
2022-09-26T12:55:39.224Z,64.69
2022-09-26T12:58:24.859Z,64.65
2022-09-26T13:01:00.083Z,64.56
2022-09-26T13:03:50.439Z,64.37
2022-09-26T13:07:07.598Z,64.30
2022-09-26T13:09:52.908Z,64.62
2022-09-26T13:12:40.656Z,64.50
2022-09-26T13:15:22.745Z,64.75
2022-09-26T13:17:57.922Z,64.67
2022-09-26T13:20:32.074Z,64.79
2022-09-26T13:23:06.917Z,64.81
2022-09-26T13:25:49.294Z,64.78
2022-09-26T13:28:21.665Z,64.88
2022-09-26T13:30:55.922Z,64.84
2022-09-26T13:33:30.828Z,64.66
2022-09-26T13:36:03.539Z,64.81
2022-09-26T13:38:48.910Z,64.45
2022-09-26T13:41:32.527Z,64.77
2022-09-26T13:44:09.154Z,65.07
2022-09-26T13:46:56.116Z,65.31
2022-09-26T13:49:35.331Z,64.77
2022-09-26T13:52:19.980Z,64.58
2022-09-26T13:54:58.004Z,64.85
2022-09-26T13:57:40.247Z,65.04
2022-09-26T14:00:49.167Z,64.97
2022-09-26T14:03:49.024Z,64.87
2022-09-26T14:06:28.879Z,64.77
2022-09-26T14:09:27.809Z,64.51
2022-09-26T14:12:21.833Z,64.50
2022-09-26T14:15:15.421Z,64.69
2022-09-26T14:18:12.489Z,65.11
2022-09-26T14:20:57.179Z,65.32
2022-09-26T14:23:41.137Z,64.98
2022-09-26T14:26:14.175Z,65.19
2022-09-26T14:28:50.723Z,65.01
2022-09-26T14:31:38.621Z,64.92
2022-09-26T14:34:16.297Z,65.04
2022-09-26T14:36:47.594Z,65.59
2022-09-26T14:39:31.982Z,65.55
2022-09-26T14:42:09.098Z,65.48
2022-09-26T14:44:37.736Z,65.80
2022-09-26T14:47:16.211Z,65.73
2022-09-26T14:49:53.068Z,65.66
2022-09-26T14:52:25.339Z,65.63
2022-09-26T14:55:01.140Z,65.39
2022-09-26T14:57:31.853Z,65.52
2022-09-26T15:00:00.705Z,65.43
2022-09-26T15:02:36.805Z,65.28
2022-09-26T15:05:13.550Z,65.35
2022-09-26T15:07:47.926Z,65.09
2022-09-26T15:10:22.830Z,65.06
2022-09-26T15:12:58.350Z,65.18
2022-09-26T15:15:36.254Z,64.79
2022-09-26T15:18:09.229Z,64.88
2022-09-26T15:20:41.835Z,64.91
2022-09-26T15:23:23.422Z,64.81
2022-09-26T15:25:54.222Z,65.14
2022-09-26T15:28:24.325Z,64.99
2022-09-26T15:31:25.209Z,64.64
2022-09-26T15:33:58.321Z,64.86
2022-09-26T15:36:29.722Z,64.88
2022-09-26T15:38:59.769Z,64.94
2022-09-26T15:41:45.999Z,65.00
2022-09-26T15:44:21.983Z,64.69
2022-09-26T15:46:50.990Z,64.85
2022-09-26T15:49:28.441Z,64.75
2022-09-26T15:51:57.670Z,64.93
2022-09-26T15:54:31.369Z,65.04
2022-09-26T15:57:04.094Z,65.05
2022-09-26T15:59:40.009Z,65.27
2022-09-26T16:02:23.186Z,64.79
2022-09-26T16:04:54.905Z,64.92
2022-09-26T16:07:26.452Z,64.91
2022-09-26T16:09:57.462Z,65.19
2022-09-26T16:12:29.498Z,65.19
2022-09-26T16:15:03.563Z,65.11
2022-09-26T16:17:35.784Z,65.26
2022-09-26T16:20:22.982Z,65.21
2022-09-26T16:22:52.224Z,65.28
2022-09-26T16:25:31.570Z,64.97
2022-09-26T16:28:02.985Z,65.17
2022-09-26T16:30:42.993Z,64.86
2022-09-26T16:33:27.307Z,64.99
2022-09-26T16:35:55.975Z,65.22
2022-09-26T16:38:28.234Z,65.06
2022-09-26T16:41:03.337Z,64.98
2022-09-26T16:43:33.177Z,64.96
2022-09-26T16:46:06.616Z,64.82
2022-09-26T16:48:41.145Z,64.92
2022-09-26T16:51:15.237Z,64.92
2022-09-26T16:53:45.774Z,65.03
2022-09-26T16:56:16.978Z,64.79
2022-09-26T16:58:50.107Z,64.66
2022-09-26T17:01:36.427Z,64.74
2022-09-26T17:04:04.815Z,65.04
2022-09-26T17:06:35.146Z,64.59
2022-09-26T17:09:13.368Z,64.88
2022-09-26T17:11:43.450Z,64.92
2022-09-26T17:14:16.329Z,64.95
2022-09-26T17:16:46.950Z,64.85
2022-09-26T17:19:17.551Z,64.82
2022-09-26T17:21:46.497Z,64.81
2022-09-26T17:24:16.442Z,64.79
2022-09-26T17:26:53.326Z,64.66
2022-09-26T17:29:27.445Z,64.84
2022-09-26T17:31:57.191Z,64.88
2022-09-26T17:34:28.333Z,64.79
2022-09-26T17:36:58.591Z,64.82
2022-09-26T17:39:27.338Z,64.98
2022-09-26T17:41:57.270Z,65.12
2022-09-26T17:44:25.429Z,65.14
2022-09-26T17:46:56.216Z,65.10
2022-09-26T17:49:27.362Z,65.01
2022-09-26T17:51:57.108Z,64.98
2022-09-26T17:54:30.179Z,65.08
2022-09-26T17:57:01.085Z,65.10
2022-09-26T17:59:29.842Z,65.13
2022-09-26T18:02:01.639Z,65.17
2022-09-26T18:04:31.356Z,65.04
2022-09-26T18:07:04.432Z,65.01
2022-09-26T18:09:35.253Z,65.01
2022-09-26T18:12:05.622Z,65.26
2022-09-26T18:14:35.478Z,65.19
2022-09-26T18:17:04.377Z,65.22
2022-09-26T18:19:35.633Z,64.97
2022-09-26T18:22:07.348Z,65.02
2022-09-26T18:24:35.803Z,65.04
2022-09-26T18:27:07.280Z,64.86
2022-09-26T18:29:38.062Z,64.76
2022-09-26T18:32:11.398Z,64.85
2022-09-26T18:34:45.394Z,64.79
2022-09-26T18:37:13.539Z,64.82
2022-09-26T18:39:41.602Z,64.98
2022-09-26T18:42:20.561Z,64.79
2022-09-26T18:44:50.306Z,64.82
2022-09-26T18:47:18.982Z,64.82
2022-09-26T18:49:48.034Z,64.80
2022-09-26T18:52:18.639Z,64.72
2022-09-26T18:55:07.254Z,64.88
2022-09-26T18:57:56.011Z,64.69
2022-09-26T19:00:25.049Z,64.79
2022-09-26T19:02:54.023Z,64.81
2022-09-26T19:05:22.506Z,64.67
2022-09-26T19:07:50.812Z,64.59
2022-09-26T19:10:23.606Z,64.47
2022-09-26T19:12:53.249Z,64.48
2022-09-26T19:15:21.317Z,64.54
2022-09-26T19:17:50.631Z,64.77
2022-09-26T19:20:18.934Z,64.94
2022-09-26T19:22:47.128Z,65.01
2022-09-26T19:25:15.379Z,65.05
2022-09-26T19:27:49.658Z,65.15
2022-09-26T19:30:24.021Z,65.22
2022-09-26T19:32:57.266Z,64.77
2022-09-26T19:35:30.208Z,64.63
2022-09-26T19:37:58.877Z,64.60
2022-09-26T19:40:28.176Z,64.60
2022-09-26T19:42:57.370Z,64.53
2022-09-26T19:45:32.131Z,64.50
2022-09-26T19:48:00.852Z,64.51
2022-09-26T19:50:30.754Z,64.27
2022-09-26T19:52:59.157Z,64.46
2022-09-26T19:55:29.025Z,64.52
2022-09-26T19:58:01.569Z,64.43
2022-09-26T20:00:36.971Z,64.34
2022-09-26T20:03:05.318Z,64.19
2022-09-26T20:05:33.395Z,64.15
2022-09-26T20:08:02.327Z,64.00
2022-09-26T20:10:30.451Z,63.85
2022-09-26T20:12:58.519Z,63.73
2022-09-26T20:15:26.566Z,63.66
2022-09-26T20:17:58.410Z,63.68
2022-09-26T20:20:27.342Z,63.67
2022-09-26T20:22:56.543Z,63.66
2022-09-26T20:25:27.435Z,63.66
2022-09-26T20:27:56.102Z,64.07
2022-09-26T20:30:42.048Z,64.17
2022-09-26T20:33:13.271Z,64.09
2022-09-26T20:35:44.630Z,64.14
2022-09-26T20:38:16.491Z,64.14
2022-09-26T20:40:46.308Z,64.25
2022-09-26T20:43:20.774Z,64.18
2022-09-26T20:45:49.355Z,64.22
2022-09-26T20:48:22.033Z,64.59
2022-09-26T20:50:50.577Z,64.84
2022-09-26T20:53:19.754Z,64.43
2022-09-26T20:55:47.960Z,64.48
2022-09-26T20:58:16.219Z,64.34
2022-09-26T21:00:45.139Z,64.30
2022-09-26T21:03:15.655Z,64.24
2022-09-26T21:05:45.711Z,64.14
2022-09-26T21:08:24.299Z,64.15
2022-09-26T21:10:52.365Z,64.38
2022-09-26T21:13:20.388Z,64.49
2022-09-26T21:15:48.565Z,64.43
2022-09-26T21:18:24.988Z,64.34
2022-09-26T21:20:55.143Z,64.43
2022-09-26T21:23:44.072Z,64.42
2022-09-26T21:26:18.590Z,64.40
2022-09-26T21:28:46.954Z,64.63
2022-09-26T21:31:21.840Z,63.97
2022-09-26T21:33:50.600Z,64.54
2022-09-26T21:36:21.119Z,64.30
2022-09-26T21:38:51.848Z,64.51
2022-09-26T21:41:20.282Z,64.38
2022-09-26T21:43:52.119Z,64.31
2022-09-26T21:46:20.795Z,64.27
2022-09-26T21:48:50.093Z,64.12
2022-09-26T21:51:21.381Z,63.89
2022-09-26T21:53:53.628Z,64.05
2022-09-26T21:56:25.750Z,64.00
2022-09-26T21:58:54.051Z,63.95
2022-09-26T22:01:22.747Z,63.95
2022-09-26T22:03:50.903Z,63.94
2022-09-26T22:06:20.294Z,63.86
2022-09-26T22:08:48.354Z,63.86
2022-09-26T22:11:16.376Z,63.73
2022-09-26T22:13:44.527Z,63.76
2022-09-26T22:16:14.280Z,63.70
2022-09-26T22:18:42.571Z,63.73
2022-09-26T22:21:12.684Z,63.69
2022-09-26T22:23:42.215Z,63.60
2022-09-26T22:26:10.361Z,63.46
2022-09-26T22:28:38.369Z,63.56
2022-09-26T22:31:06.817Z,63.46
2022-09-26T22:33:35.126Z,63.37
2022-09-26T22:36:03.998Z,63.44
2022-09-26T22:38:33.725Z,63.41
2022-09-26T22:41:04.829Z,63.32
2022-09-26T22:43:34.300Z,63.35
2022-09-26T22:46:03.247Z,63.50
2022-09-26T22:48:33.065Z,63.51
2022-09-26T22:51:01.493Z,63.60
2022-09-26T22:53:31.167Z,63.54
2022-09-26T22:56:05.003Z,63.59
2022-09-26T22:58:37.661Z,63.69
2022-09-26T23:01:07.933Z,64.17
2022-09-26T23:03:36.341Z,64.51
2022-09-26T23:06:05.374Z,64.24
2022-09-26T23:08:34.075Z,64.37
2022-09-26T23:11:03.254Z,64.27
2022-09-26T23:13:32.895Z,64.18
2022-09-26T23:16:06.783Z,64.24
2022-09-26T23:18:35.612Z,64.42
2022-09-26T23:21:08.891Z,64.45
2022-09-26T23:23:37.041Z,64.67
2022-09-26T23:26:06.560Z,64.88
2022-09-26T23:28:35.000Z,65.16
2022-09-26T23:31:08.967Z,64.98
2022-09-26T23:33:37.492Z,65.13
2022-09-26T23:36:06.154Z,64.76
2022-09-26T23:38:34.990Z,64.65
2022-09-26T23:41:03.246Z,64.59
2022-09-26T23:43:31.340Z,64.42
2022-09-26T23:45:59.500Z,64.46
2022-09-26T23:48:29.352Z,64.14
2022-09-26T23:50:57.699Z,64.28
2022-09-26T23:53:26.040Z,64.13
2022-09-26T23:55:54.471Z,64.21
2022-09-26T23:58:22.590Z,64.21
